Time;durP1;ratioP1;P1;durP2;ratioP2;P2;SDS_P1;SDS_P2;PMS_P1;PMS_P2;Temp;Humidity;BMP_temperature;BMP_pressure;BME280_temperature;BME280_humidity;BME280_pressure;Samples;Min_cycle;Max_cycle;Signal;HPM_P1;HPM_P2
2022/10/17 00:03:52;;;;;;;36.83;17.33;;;;;;;13.20;100.00;101486.01;5242769;56;1145212;-74
2022/10/17 00:08:58;;;;;;;29.27;15.13;;;;;;;13.12;100.00;101496.80;5239051;56;1145459;-75
2022/10/17 00:14:04;;;;;;;18.13;10.20;;;;;;;13.16;100.00;101492.98;5206078;56;1145197;-75
2022/10/17 00:19:10;;;;;;;10.10;6.13;;;;;;;13.16;100.00;101504.92;5086057;57;1145274;-74
2022/10/17 00:24:16;;;;;;;22.80;10.13;;;;;;;13.16;100.00;101508.44;5226604;56;1143124;-74
2022/10/17 00:29:21;;;;;;;32.00;15.93;;;;;;;13.25;100.00;101502.47;5221039;56;1145225;-76
2022/10/17 00:34:29;;;;;;;22.63;11.87;;;;;;;13.34;100.00;101501.78;5229023;55;1145222;-74
2022/10/17 00:39:35;;;;;;;24.30;10.00;;;;;;;13.36;100.00;101509.64;5248221;55;1145223;-76
2022/10/17 00:44:46;;;;;;;12.90;7.20;;;;;;;13.37;100.00;101510.02;5318100;55;1145259;-73
2022/10/17 00:49:52;;;;;;;18.17;8.97;;;;;;;13.34;100.00;101517.72;5257446;55;1143162;-76
2022/10/17 00:55:14;;;;;;;16.67;6.53;;;;;;;13.38;100.00;101519.20;5273260;55;1143139;-74
2022/10/17 01:00:22;;;;;;;13.32;6.20;;;;;;;13.36;100.00;101513.62;5307724;55;1141110;-76
2022/10/17 01:05:28;;;;;;;10.90;5.13;;;;;;;13.29;100.00;101509.23;5219074;56;1141131;-74
2022/10/17 01:10:55;;;;;;;9.83;5.40;;;;;;;13.21;100.00;101508.11;5228812;56;1141158;-75
2022/10/17 01:16:23;;;;;;;9.87;5.20;;;;;;;13.25;100.00;101521.06;5228737;56;1138907;-76
2022/10/17 01:22:04;;;;;;;18.03;7.70;;;;;;;13.26;100.00;101537.86;5280988;55;1139073;-74
2022/10/17 01:27:34;;;;;;;14.40;8.37;;;;;;;13.27;100.00;101528.93;5308370;55;1143092;-74
2022/10/17 01:32:54;;;;;;;16.17;8.07;;;;;;;13.39;100.00;101532.02;5307909;55;1143100;-75
2022/10/17 01:38:17;;;;;;;19.00;8.00;;;;;;;13.40;100.00;101529.72;5308252;55;1143417;-75
2022/10/17 01:43:36;;;;;;;20.80;8.50;;;;;;;13.36;100.00;101530.42;5207424;55;1143147;-74
2022/10/17 01:48:46;;;;;;;15.40;7.83;;;;;;;13.46;100.00;101519.10;5138230;57;1143377;-73
2022/10/17 01:54:05;;;;;;;10.83;6.87;;;;;;;13.50;100.00;101516.59;5138404;57;1143484;-74
2022/10/17 01:59:25;;;;;;;14.30;5.43;;;;;;;13.58;100.00;101523.06;5173907;56;1143174;-74
2022/10/17 02:04:31;;;;;;;15.20;5.57;;;;;;;13.56;100.00;101531.63;5228681;56;1143332;-75
2022/10/17 02:09:36;;;;;;;12.80;6.37;;;;;;;13.56;100.00;101518.81;5227672;55;1143231;-74
2022/10/17 02:15:12;;;;;;;20.80;9.73;;;;;;;13.62;100.00;101523.66;5181664;56;1143190;-74
2022/10/17 02:20:38;;;;;;;14.43;6.77;;;;;;;13.63;100.00;101516.05;5129425;57;1143417;-75
2022/10/17 02:26:11;;;;;;;10.97;5.63;;;;;;;13.56;100.00;101511.69;5129672;57;1141208;-73
2022/10/17 02:31:21;;;;;;;11.03;5.80;;;;;;;13.48;100.00;101508.73;5129956;57;1141183;-73
2022/10/17 02:36:32;;;;;;;38.93;18.40;;;;;;;13.43;100.00;101514.04;5192815;56;1141110;-77
2022/10/17 02:41:40;;;;;;;13.73;8.40;;;;;;;13.38;100.00;101527.66;5267655;55;1143106;-75
2022/10/17 02:46:55;;;;;;;12.93;7.77;;;;;;;13.28;100.00;101531.95;5299714;55;1140412;-76
2022/10/17 02:52:07;;;;;;;10.47;6.90;;;;;;;13.22;100.00;101531.06;5305492;55;1141055;-73
2022/10/17 02:57:44;;;;;;;15.43;8.20;;;;;;;13.14;100.00;101537.39;5264539;55;1138994;-73
2022/10/17 03:02:53;;;;;;;10.03;6.73;;;;;;;13.26;100.00;101536.53;5221668;55;1143197;-74
2022/10/17 03:07:59;;;;;;;21.93;10.50;;;;;;;13.40;100.00;101539.02;5257129;55;1143135;-73
2022/10/17 03:13:06;;;;;;;10.53;7.03;;;;;;;13.46;100.00;101520.43;5257387;55;1145040;-75
2022/10/17 03:18:13;;;;;;;12.23;6.57;;;;;;;13.45;100.00;101539.52;5207046;56;1143194;-74
2022/10/17 03:23:20;;;;;;;15.43;7.47;;;;;;;13.38;100.00;101545.78;5155539;57;1143167;-75
2022/10/17 03:28:27;;;;;;;8.90;7.10;;;;;;;13.42;100.00;101544.23;5124502;57;1143128;-75
2022/10/17 03:33:34;;;;;;;15.38;8.08;;;;;;;13.47;100.00;101554.02;5142038;57;1141044;-76
2022/10/17 03:38:40;;;;;;;13.80;8.33;;;;;;;13.51;100.00;101547.53;5141871;57;1143167;-74
2022/10/17 03:43:46;;;;;;;17.37;7.87;;;;;;;13.46;100.00;101561.63;5142080;56;1143246;-75
2022/10/17 03:48:52;;;;;;;13.47;7.27;;;;;;;13.45;100.00;101551.95;5142107;57;1143362;-76
2022/10/17 03:53:58;;;;;;;16.83;8.70;;;;;;;13.46;100.00;101551.84;5141880;57;1143156;-76
2022/10/17 03:59:05;;;;;;;19.93;12.30;;;;;;;13.48;100.00;101553.06;5157764;56;1143132;-76
2022/10/17 04:04:13;;;;;;;22.87;11.37;;;;;;;13.48;100.00;101553.91;5228039;56;1145147;-75
2022/10/17 04:09:20;;;;;;;18.73;9.57;;;;;;;13.49;100.00;101565.39;5209471;56;1145227;-75
2022/10/17 04:14:27;;;;;;;18.10;8.70;;;;;;;13.50;100.00;101569.27;5222496;56;1143123;-74
2022/10/17 04:19:33;;;;;;;16.83;8.53;;;;;;;13.51;100.00;101572.30;5141904;57;1143188;-76
2022/10/17 04:24:39;;;;;;;16.53;8.70;;;;;;;13.52;100.00;101583.78;5141879;56;1143163;-74
2022/10/17 04:29:47;;;;;;;16.33;9.70;;;;;;;13.46;100.00;101575.77;5141716;57;1143352;-74
2022/10/17 04:34:55;;;;;;;18.87;8.83;;;;;;;13.49;100.00;101568.91;5217785;56;1143127;-73
2022/10/17 04:40:01;;;;;;;20.43;9.57;;;;;;;13.43;100.00;101562.72;5201580;56;1143231;-75
2022/10/17 04:45:10;;;;;;;15.10;9.13;;;;;;;13.43;100.00;101569.84;5183917;56;1142605;-76
2022/10/17 04:50:17;;;;;;;19.00;12.17;;;;;;;13.42;100.00;101582.28;5185765;56;1143299;-74
2022/10/17 04:55:25;;;;;;;17.67;9.73;;;;;;;13.42;100.00;101574.79;4960220;58;1145329;-74
2022/10/17 05:00:31;;;;;;;23.13;11.37;;;;;;;13.46;100.00;101576.23;5185944;56;1143166;-73
2022/10/17 05:05:45;;;;;;;27.80;13.53;;;;;;;13.49;100.00;101576.88;5180244;56;1145160;-76
2022/10/17 05:10:51;;;;;;;20.63;12.80;;;;;;;13.48;100.00;101573.84;5210778;56;1145295;-76
2022/10/17 05:16:01;;;;;;;20.67;12.10;;;;;;;13.44;100.00;101576.37;5229055;55;1145327;-75
2022/10/17 05:21:08;;;;;;;17.93;11.43;;;;;;;13.41;100.00;101577.08;5250117;55;1143084;-75
2022/10/17 05:26:15;;;;;;;24.40;11.90;;;;;;;13.40;100.00;101583.34;5270535;55;1143366;-74
2022/10/17 05:31:22;;;;;;;31.53;16.83;;;;;;;13.37;100.00;101581.76;5276536;55;1143116;-74
2022/10/17 05:36:28;;;;;;;34.73;16.40;;;;;;;13.34;100.00;101582.82;5193696;56;1143094;-74
2022/10/17 05:41:34;;;;;;;36.23;15.70;;;;;;;13.35;100.00;101586.33;5250468;55;1143165;-74
2022/10/17 05:46:40;;;;;;;26.30;15.80;;;;;;;13.34;100.00;101583.30;5243246;56;1143173;-75
2022/10/17 05:51:47;;;;;;;37.20;17.60;;;;;;;13.36;100.00;101596.00;5220075;56;1143157;-76
2022/10/17 05:56:55;;;;;;;37.53;17.87;;;;;;;13.37;100.00;101602.53;5227529;56;1143198;-74
2022/10/17 06:02:04;;;;;;;33.60;17.70;;;;;;;13.36;100.00;101603.49;5283009;55;1143097;-74
2022/10/17 06:07:09;;;;;;;48.20;17.30;;;;;;;13.35;100.00;101601.80;5260106;56;1143053;-74
2022/10/17 06:12:15;;;;;;;28.73;14.67;;;;;;;13.37;100.00;101604.34;5253617;55;1143395;-75
2022/10/17 06:17:21;;;;;;;38.07;15.93;;;;;;;13.42;100.00;101615.98;5246436;55;1143274;-74
2022/10/17 06:22:27;;;;;;;43.30;18.03;;;;;;;13.51;100.00;101620.14;5225517;55;1143555;-74
2022/10/17 06:27:34;;;;;;;35.10;18.93;;;;;;;13.48;100.00;101621.68;5218458;56;1143170;-74
2022/10/17 06:32:41;;;;;;;30.70;18.23;;;;;;;13.35;100.00;101639.47;5221479;56;1143350;-75
2022/10/17 06:37:47;;;;;;;29.47;17.47;;;;;;;13.37;100.00;101642.39;5218770;56;1143291;-74
2022/10/17 06:42:53;;;;;;;35.73;20.33;;;;;;;13.57;100.00;101639.64;5295993;55;1143184;-74
2022/10/17 06:48:03;;;;;;;39.80;22.67;;;;;;;13.78;100.00;101630.56;5306607;55;1141232;-74
2022/10/17 06:53:20;;;;;;;39.93;25.03;;;;;;;14.08;100.00;101634.09;5260685;55;1145203;-76
2022/10/17 06:58:33;;;;;;;28.17;19.00;;;;;;;14.31;100.00;101634.56;5227928;55;1145302;-75
2022/10/17 07:03:42;;;;;;;27.00;18.80;;;;;;;14.51;100.00;101632.25;5155061;56;1145232;-76
2022/10/17 07:08:49;;;;;;;32.20;22.23;;;;;;;14.72;100.00;101640.75;5079111;57;1145309;-74
2022/10/17 07:13:56;;;;;;;29.40;20.93;;;;;;;14.87;100.00;101645.38;5085151;57;1145375;-76
2022/10/17 07:19:02;;;;;;;27.73;20.83;;;;;;;14.97;100.00;101646.86;5117831;56;1145232;-75
2022/10/17 07:24:10;;;;;;;25.43;19.73;;;;;;;15.08;100.00;101646.38;5089450;57;1145276;-73
2022/10/17 07:29:17;;;;;;;26.90;20.90;;;;;;;15.16;100.00;101650.23;5119787;57;1145234;-74
2022/10/17 07:34:29;;;;;;;26.20;21.03;;;;;;;15.22;100.00;101652.42;5093575;57;1145378;-75
2022/10/17 07:39:34;;;;;;;27.83;20.93;;;;;;;15.32;100.00;101648.05;5076357;57;1145442;-75
2022/10/17 07:44:40;;;;;;;35.50;24.47;;;;;;;15.57;100.00;101654.98;5075810;57;1145232;-74
2022/10/17 07:49:47;;;;;;;28.37;20.30;;;;;;;15.64;100.00;101645.50;5075750;58;1145140;-75
2022/10/17 07:54:54;;;;;;;25.37;19.33;;;;;;;15.79;100.00;101641.59;5142428;57;1145241;-75
2022/10/17 08:00:00;;;;;;;25.57;20.27;;;;;;;15.91;100.00;101631.23;5164152;56;1145217;-75
2022/10/17 08:05:07;;;;;;;28.30;20.67;;;;;;;16.10;100.00;101627.41;5163997;56;1145279;-74
2022/10/17 08:10:16;;;;;;;25.27;19.63;;;;;;;16.31;100.00;101631.45;5097363;57;1145218;-73
2022/10/17 08:15:22;;;;;;;29.67;23.27;;;;;;;16.47;100.00;101638.53;5143319;56;1145158;-76
2022/10/17 08:20:27;;;;;;;29.70;22.70;;;;;;;16.60;100.00;101631.66;5135095;56;1145497;-74
2022/10/17 08:25:33;;;;;;;28.50;22.47;;;;;;;16.84;100.00;101636.74;5066013;56;1145249;-74
2022/10/17 08:30:39;;;;;;;27.80;20.30;;;;;;;17.14;100.00;101633.23;5066128;57;1145250;-74
2022/10/17 08:35:45;;;;;;;31.47;21.47;;;;;;;17.46;100.00;101629.05;5077693;57;1145304;-74
2022/10/17 08:40:52;;;;;;;26.17;21.33;;;;;;;17.70;100.00;101626.91;5137013;56;1145281;-75
2022/10/17 08:46:02;;;;;;;33.07;20.63;;;;;;;17.85;100.00;101624.68;5118253;57;1145291;-74
2022/10/17 08:51:21;;;;;;;25.37;19.27;;;;;;;18.03;100.00;101624.31;5216106;56;1145235;-74
2022/10/17 08:56:43;;;;;;;26.80;19.53;;;;;;;18.19;100.00;101625.94;5118461;57;1145269;-75
2022/10/17 09:01:57;;;;;;;31.67;17.93;;;;;;;18.38;100.00;101620.23;5194165;56;1145197;-74
2022/10/17 09:07:40;;;;;;;24.70;17.10;;;;;;;18.66;100.00;101617.17;5196175;56;1143175;-75
2022/10/17 09:13:14;;;;;;;24.77;17.30;;;;;;;18.89;100.00;101614.52;5173452;56;1143221;-74
2022/10/17 09:18:32;;;;;;;24.43;16.70;;;;;;;19.01;100.00;101618.70;5212877;56;1143052;-74
2022/10/17 09:24:00;;;;;;;37.93;16.48;;;;;;;19.11;100.00;101618.16;5199644;56;1145159;-76
2022/10/17 09:29:10;;;;;;;26.57;17.50;;;;;;;19.15;100.00;101626.76;5133744;56;1145245;-74
2022/10/17 09:34:17;;;;;;;30.88;17.42;;;;;;;19.19;100.00;101629.50;5215155;56;1145191;-75
2022/10/17 09:39:25;;;;;;;19.25;14.65;;;;;;;19.23;100.00;101625.05;5212757;55;1145513;-74
2022/10/17 09:44:44;;;;;;;20.92;17.45;;;;;;;19.34;100.00;101622.66;5230197;55;1145143;-74
2022/10/17 09:49:50;;;;;;;26.73;16.12;;;;;;;19.55;100.00;101618.41;5304445;55;1145243;-74
2022/10/17 09:55:03;;;;;;;23.22;15.70;;;;;;;19.65;100.00;101619.19;5231291;55;1145223;-74
2022/10/17 10:00:14;;;;;;;19.25;15.15;;;;;;;19.79;100.00;101615.98;5227192;55;1145196;-74
2022/10/17 10:05:20;;;;;;;23.25;14.83;;;;;;;19.91;100.00;101615.25;5226021;56;1145431;-75
2022/10/17 10:10:29;;;;;;;22.15;15.58;;;;;;;20.01;100.00;101615.52;5188139;56;1145213;-73
2022/10/17 10:15:45;;;;;;;20.45;13.00;;;;;;;20.17;100.00;101616.16;5178707;56;1145625;-74
2022/10/17 10:20:47;;;;;;;19.77;14.70;;;;;;;20.30;100.00;101619.83;5156477;56;1145178;-75
2022/10/17 10:25:59;;;;;;;17.55;14.20;;;;;;;20.49;100.00;101625.52;5183784;56;1145305;-74
2022/10/17 10:31:08;;;;;;;19.42;13.85;;;;;;;20.58;100.00;101618.73;5156167;56;1145362;-74
2022/10/17 10:36:14;;;;;;;18.73;13.83;;;;;;;20.67;100.00;101612.89;5164818;56;1145448;-74
2022/10/17 10:41:20;;;;;;;15.88;12.93;;;;;;;20.78;100.00;101609.11;5232238;55;1145233;-75
2022/10/17 10:46:28;;;;;;;19.00;15.08;;;;;;;20.89;99.86;101612.38;5208554;55;1145669;-75
2022/10/17 10:51:46;;;;;;;28.02;16.07;;;;;;;20.95;98.26;101588.85;5190491;56;1143175;-75
2022/10/17 10:56:56;;;;;;;53.25;31.52;;;;;;;21.08;97.41;101591.12;5202210;56;1143125;-75
2022/10/17 11:02:42;;;;;;;22.87;14.75;;;;;;;21.20;97.50;101594.39;5216200;56;1143086;-75
2022/10/17 11:08:12;;;;;;;28.77;19.87;;;;;;;21.31;94.97;101586.86;5242602;56;1141108;-75
2022/10/17 11:13:27;;;;;;;20.90;13.62;;;;;;;21.54;91.85;101583.05;5209955;56;1141092;-75
2022/10/17 11:18:52;;;;;;;17.52;12.50;;;;;;;21.72;91.98;101574.34;5263574;55;1141038;-76
2022/10/17 11:24:20;;;;;;;18.77;12.88;;;;;;;21.87;93.53;101571.84;5199450;56;1138959;-75
2022/10/17 11:29:31;;;;;;;23.65;11.43;;;;;;;22.04;93.34;101564.14;5184580;56;1143150;-75
2022/10/17 11:34:46;;;;;;;14.68;12.00;;;;;;;22.25;90.57;101577.11;5198144;56;1143323;-75
2022/10/17 11:39:56;;;;;;;12.53;11.22;;;;;;;22.26;89.55;101564.48;5146385;56;1143205;-75
2022/10/17 11:45:11;;;;;;;16.25;13.13;;;;;;;22.33;87.20;101570.86;5201275;56;1143217;-77
2022/10/17 11:50:35;;;;;;;13.38;10.15;;;;;;;22.44;89.64;101559.75;5091565;57;1143144;-73
2022/10/17 11:55:43;;;;;;;14.87;9.80;;;;;;;22.65;86.57;101564.57;5180586;56;1143177;-75
2022/10/17 12:01:39;;;;;;;16.55;9.63;;;;;;;22.87;87.23;101556.30;5247235;55;1141112;-75
2022/10/17 12:07:17;;;;;;;10.45;8.90;;;;;;;23.03;88.74;101547.62;5213315;55;1141267;-75
2022/10/17 12:12:29;;;;;;;10.05;8.58;;;;;;;23.25;83.29;101544.64;5162152;56;1141009;-76
2022/10/17 12:17:41;;;;;;;9.33;8.28;;;;;;;23.37;82.98;101540.55;5173892;56;1138940;-76
2022/10/17 12:23:04;;;;;;;15.00;11.93;;;;;;;23.46;79.57;101540.82;5185947;56;1136894;-76
2022/10/17 12:28:45;;;;;;;13.45;10.10;;;;;;;23.42;81.31;101534.59;5165377;55;1141024;-74
2022/10/17 12:33:54;;;;;;;12.76;8.70;;;;;;;23.40;82.30;101528.53;5190125;56;1141029;-75
2022/10/17 12:39:10;;;;;;;10.72;9.13;;;;;;;23.42;82.67;101529.20;5150929;56;1138991;-75
2022/10/17 12:44:22;;;;;;;12.18;8.45;;;;;;;23.38;81.10;101528.70;5137251;57;1137173;-75
2022/10/17 12:49:49;;;;;;;13.00;7.40;;;;;;;23.46;80.02;101524.62;5213247;56;1141002;-75
2022/10/17 12:55:13;;;;;;;9.63;8.60;;;;;;;23.60;80.43;101513.59;5190857;55;1141058;-74
2022/10/17 13:00:47;;;;;;;14.78;9.28;;;;;;;23.72;78.39;101507.24;5269553;55;1138948;-74
2022/10/17 13:05:57;;;;;;;11.87;9.03;;;;;;;23.95;78.78;101518.89;5161140;56;1141042;-73
2022/10/17 13:11:05;;;;;;;35.70;25.15;;;;;;;24.03;77.31;101517.95;5134621;56;1141086;-73
2022/10/17 13:16:32;;;;;;;12.73;9.88;;;;;;;23.95;79.22;101512.64;5139863;56;1143093;-73
2022/10/17 13:21:38;;;;;;;17.30;11.03;;;;;;;23.80;78.77;101501.80;5227813;55;1141109;-73
2022/10/17 13:26:46;;;;;;;12.58;8.70;;;;;;;23.66;79.97;101498.02;5223903;55;1143120;-73
2022/10/17 13:32:02;;;;;;;11.53;8.13;;;;;;;23.73;79.32;101488.16;5200563;55;1141104;-74
2022/10/17 13:37:13;;;;;;;15.40;9.50;;;;;;;23.93;80.08;101493.06;5162110;56;1140999;-75
2022/10/17 13:42:27;;;;;;;18.15;12.68;;;;;;;24.22;79.98;101466.09;5158962;56;1141152;-74
2022/10/17 13:47:36;;;;;;;20.05;15.93;;;;;;;24.22;79.98;101466.09;5155438;56;1143062;-75
2022/10/17 13:52:42;;;;;;;12.00;9.68;;;;;;;24.42;79.22;101482.64;5172449;56;1143372;-74
2022/10/17 13:57:48;;;;;;;44.35;25.08;;;;;;;24.62;80.12;101481.03;5207817;55;1141163;-74
2022/10/17 14:02:53;;;;;;;14.45;9.85;;;;;;;24.77;77.33;101472.91;5238013;56;1141222;-75
2022/10/17 14:08:03;;;;;;;26.40;16.48;;;;;;;24.83;77.20;101464.88;5155527;57;1138989;-74
2022/10/17 14:13:21;;;;;;;17.65;9.53;;;;;;;24.72;75.15;101456.42;5148391;57;1141116;-73
2022/10/17 14:18:34;;;;;;;17.23;9.55;;;;;;;24.59;75.62;101466.56;5058560;56;1138883;-73
2022/10/17 14:23:43;;;;;;;12.20;8.43;;;;;;;24.46;75.83;101460.94;4992362;58;1139265;-74
2022/10/17 14:29:05;;;;;;;13.35;9.33;;;;;;;24.38;76.97;101456.48;5183483;56;1138964;-75
2022/10/17 14:34:20;;;;;;;16.20;9.90;;;;;;;24.48;76.43;101455.67;5209593;55;1139055;-74
2022/10/17 14:39:28;;;;;;;13.43;8.38;;;;;;;24.54;75.58;101458.16;5192087;56;1139016;-75
2022/10/17 14:44:36;;;;;;;13.72;10.25;;;;;;;24.31;74.03;101451.48;5194926;56;1137313;-68
2022/10/17 14:49:42;;;;;;;10.15;8.40;;;;;;;24.12;75.71;101450.15;5169002;56;21144;-66
2022/10/17 14:54:49;;;;;;;14.15;9.48;;;;;;;24.00;76.03;101454.81;5210443;55;1136813;-67
2022/10/17 14:59:59;;;;;;;12.90;9.07;;;;;;;24.10;76.50;101462.16;5201636;55;1141040;-69
2022/10/17 15:05:05;;;;;;;17.00;8.47;;;;;;;24.52;76.03;101449.38;5229659;55;1141029;-71
2022/10/17 15:10:24;;;;;;;17.48;8.48;;;;;;;24.39;74.48;101452.75;5200133;55;1141027;-71
2022/10/17 15:15:31;;;;;;;14.60;10.38;;;;;;;24.10;75.07;101454.05;5244800;55;1141044;-69
2022/10/17 15:20:38;;;;;;;14.00;9.83;;;;;;;23.81;75.93;101457.03;5207895;56;1143388;-69
2022/10/17 15:25:44;;;;;;;25.27;11.63;;;;;;;23.58;76.62;101458.91;5229521;56;1141073;-67
2022/10/17 15:30:50;;;;;;;31.25;18.12;;;;;;;23.37;77.16;101462.77;5168166;56;1143404;-65
2022/10/17 15:35:55;;;;;;;26.00;11.35;;;;;;;23.20;77.88;101455.80;5157654;56;1143135;-65
2022/10/17 15:41:01;;;;;;;26.55;11.05;;;;;;;23.02;78.17;101455.55;5142220;56;1143179;-67
2022/10/17 15:46:20;;;;;;;27.85;16.95;;;;;;;22.83;78.60;101446.55;5140619;56;1143251;-65
2022/10/17 15:51:25;;;;;;;79.50;42.17;;;;;;;22.67;79.04;101464.11;5147949;56;1143358;-74
2022/10/17 15:56:41;;;;;;;71.95;35.13;;;;;;;22.53;79.62;101463.50;5170661;56;1143203;-74
2022/10/17 16:01:47;;;;;;;47.00;23.77;;;;;;;22.37;79.67;101457.14;5170674;56;1143158;-75
2022/10/17 16:06:53;;;;;;;66.05;37.93;;;;;;;22.23;80.27;101465.10;5229208;56;1143105;-74
2022/10/17 16:12:00;;;;;;;40.45;25.82;;;;;;;22.12;80.75;101464.97;5183134;56;1143135;-74
2022/10/17 16:17:08;;;;;;;41.75;22.15;;;;;;;21.98;80.83;101469.67;5143013;55;1143169;-75
2022/10/17 16:22:35;;;;;;;52.70;28.20;;;;;;;21.88;81.26;101476.56;5139744;57;1143084;-74
2022/10/17 16:27:40;;;;;;;32.23;22.37;;;;;;;21.77;81.67;101472.88;5130780;56;1143150;-74
2022/10/17 16:32:47;;;;;;;45.12;25.08;;;;;;;21.70;82.05;101467.80;5062809;57;1143150;-75
2022/10/17 16:37:52;;;;;;;23.18;16.85;;;;;;;21.62;82.30;101475.39;5216432;56;1143089;-75
2022/10/17 16:42:58;;;;;;;27.45;16.75;;;;;;;21.55;82.57;101482.44;5216443;56;1143111;-74
2022/10/17 16:48:04;;;;;;;24.65;14.95;;;;;;;21.46;82.97;101487.99;5216150;56;1143180;-74
2022/10/17 16:53:10;;;;;;;51.68;32.38;;;;;;;21.36;83.26;101490.84;5216285;56;1143163;-74
2022/10/17 16:58:16;;;;;;;28.98;21.45;;;;;;;21.28;83.58;101486.78;5202593;56;1143160;-75
2022/10/17 17:03:21;;;;;;;41.63;32.90;;;;;;;21.21;83.89;101485.77;5208299;56;1143201;-74
2022/10/17 17:08:27;;;;;;;38.73;27.07;;;;;;;21.16;84.19;101482.19;5211922;56;1143160;-75
2022/10/17 17:13:33;;;;;;;83.00;48.40;;;;;;;21.12;84.49;101478.64;5207849;56;1141114;-74
2022/10/17 17:18:41;;;;;;;36.98;21.10;;;;;;;21.00;85.25;101478.10;5074025;57;1141117;-75
2022/10/17 17:23:47;;;;;;;29.25;17.85;;;;;;;21.00;85.25;101478.10;5070834;58;1141050;-75
2022/10/17 17:28:53;;;;;;;37.67;23.73;;;;;;;20.98;85.20;101477.42;5110667;58;1140980;-75
2022/10/17 17:34:00;;;;;;;48.40;31.30;;;;;;;20.93;85.43;101480.59;5110693;58;1141309;-74
2022/10/17 17:39:10;;;;;;;36.00;18.67;;;;;;;20.84;85.65;101479.39;5110715;58;1140432;-74
2022/10/17 17:44:16;;;;;;;25.23;18.17;;;;;;;20.71;86.00;101488.75;5111184;57;1141066;-74
2022/10/17 17:49:22;;;;;;;23.95;17.57;;;;;;;20.63;86.33;101480.64;5043917;58;1141301;-75
2022/10/17 17:54:29;;;;;;;30.70;18.95;;;;;;;20.56;86.51;101477.42;5028657;58;1141232;-74
2022/10/17 17:59:35;;;;;;;26.93;19.75;;;;;;;20.48;86.73;101469.30;5067790;58;1141122;-75
2022/10/17 18:04:41;;;;;;;23.60;17.82;;;;;;;20.41;86.95;101464.25;5111213;58;1141072;-74
2022/10/17 18:09:48;;;;;;;26.33;17.25;;;;;;;20.35;87.29;101469.72;4958076;58;1141175;-76
2022/10/17 18:14:53;;;;;;;27.40;20.55;;;;;;;20.24;87.93;101469.49;5144905;57;1141163;-76
2022/10/17 18:19:59;;;;;;;38.85;22.32;;;;;;;20.14;88.23;101458.02;5087118;58;1141033;-75
2022/10/17 18:25:05;;;;;;;27.60;20.10;;;;;;;20.08;88.67;101465.36;5164170;56;1141097;-75
2022/10/17 18:30:12;;;;;;;26.42;16.17;;;;;;;20.09;88.98;101456.30;5151708;57;1141158;-76
2022/10/17 18:35:18;;;;;;;28.83;17.75;;;;;;;20.02;89.34;101452.05;5070209;57;1138983;-75
2022/10/17 18:40:26;;;;;;;25.94;17.50;;;;;;;19.96;89.56;101466.62;5101639;57;1139057;-77
2022/10/17 18:45:32;;;;;;;22.52;17.00;;;;;;;19.87;89.83;101459.48;5113654;57;1143033;-77
2022/10/17 18:50:39;;;;;;;32.10;19.44;;;;;;;19.85;89.98;101466.88;5089813;56;1143074;-74
2022/10/17 18:55:45;;;;;;;31.13;19.70;;;;;;;19.79;90.19;101458.09;5038453;56;1143301;-74
2022/10/17 19:00:52;;;;;;;47.40;20.60;;;;;;;19.70;90.36;101462.57;5045462;57;1143132;-77
2022/10/17 19:06:06;;;;;;;32.45;19.98;;;;;;;19.64;90.70;101459.99;5093234;57;1143214;-74
2022/10/17 19:11:16;;;;;;;28.05;18.57;;;;;;;19.62;91.02;101457.11;5057413;57;1143277;-75
2022/10/17 19:16:32;;;;;;;28.85;20.55;;;;;;;19.56;91.45;101462.59;5058641;57;1143061;-78
2022/10/17 19:21:39;;;;;;;27.05;18.50;;;;;;;19.46;91.86;101456.44;5044018;57;1143099;-74
2022/10/17 19:26:49;;;;;;;23.15;15.80;;;;;;;19.42;92.21;101445.66;5088235;57;1143195;-74
2022/10/17 19:31:55;;;;;;;28.42;19.42;;;;;;;19.36;92.43;101446.30;5016952;58;1143235;-78
2022/10/17 19:37:00;;;;;;;27.42;19.35;;;;;;;19.32;92.19;101447.09;5131120;57;1143168;-76
2022/10/17 19:42:06;;;;;;;26.17;16.97;;;;;;;19.28;92.26;101440.34;5131022;57;1143335;-74
2022/10/17 19:47:11;;;;;;;24.00;19.10;;;;;;;19.20;92.58;101446.98;5131405;57;1143062;-75
2022/10/17 19:52:17;;;;;;;28.50;17.95;;;;;;;19.15;92.47;101455.97;5120545;57;1143187;-74
2022/10/17 19:57:24;;;;;;;33.95;20.45;;;;;;;19.08;92.62;101459.42;5088095;57;1143120;-77
2022/10/17 20:02:31;;;;;;;26.20;20.32;;;;;;;19.01;92.73;101470.39;5162544;56;1143283;-75
2022/10/17 20:07:37;;;;;;;28.65;17.73;;;;;;;18.90;92.87;101469.61;5149950;57;1143241;-76
2022/10/17 20:12:43;;;;;;;23.80;16.75;;;;;;;18.84;93.05;101474.72;5149648;57;1143287;-73
2022/10/17 20:17:49;;;;;;;25.08;16.90;;;;;;;18.77;93.12;101473.14;5149702;57;1143145;-75
2022/10/17 20:22:55;;;;;;;24.60;16.10;;;;;;;18.72;93.45;101479.44;5149857;57;1143367;-77
2022/10/17 20:28:01;;;;;;;25.02;17.92;;;;;;;18.68;93.46;101474.02;5074746;57;1143432;-75
2022/10/17 20:33:07;;;;;;;24.98;17.17;;;;;;;18.65;93.37;101472.12;5066046;58;1143316;-75
2022/10/17 20:38:14;;;;;;;29.77;17.20;;;;;;;18.59;93.63;101481.61;5112479;56;1143150;-78
2022/10/17 20:43:21;;;;;;;29.25;18.50;;;;;;;18.50;94.00;101479.27;5180171;56;1143174;-74
2022/10/17 20:48:27;;;;;;;29.12;18.35;;;;;;;18.42;94.09;101479.67;5149691;57;1143100;-74
2022/10/17 20:53:33;;;;;;;27.73;17.45;;;;;;;18.35;94.45;101482.08;5148228;56;1143162;-74
2022/10/17 20:58:38;;;;;;;27.62;18.62;;;;;;;18.31;94.53;101479.86;5125305;57;1143215;-74
2022/10/17 21:03:44;;;;;;;28.38;17.87;;;;;;;18.22;94.76;101482.41;5020432;58;1143313;-74
2022/10/17 21:08:54;;;;;;;27.62;17.26;;;;;;;18.17;95.03;101490.53;5149374;57;1143183;-74
2022/10/17 21:14:04;;;;;;;23.87;17.42;;;;;;;18.14;94.90;101484.13;5072091;57;1143222;-75
2022/10/17 21:19:12;;;;;;;22.65;17.87;;;;;;;18.11;95.09;101471.02;5066435;57;1143192;-74
2022/10/17 21:24:19;;;;;;;25.92;17.15;;;;;;;18.07;95.23;101474.47;5076153;57;1143432;-74
2022/10/17 21:29:25;;;;;;;29.87;18.45;;;;;;;18.03;95.54;101474.41;5002782;57;1141184;-74
2022/10/17 21:34:31;;;;;;;24.05;17.02;;;;;;;17.95;95.78;101486.34;5017073;58;1141060;-74
2022/10/17 21:39:37;;;;;;;24.98;18.17;;;;;;;17.91;95.94;101487.60;5048153;58;1141111;-74
2022/10/17 21:44:44;;;;;;;28.07;16.90;;;;;;;17.87;96.32;101481.69;5050982;58;1140993;-74
2022/10/17 21:49:49;;;;;;;32.85;18.85;;;;;;;17.81;96.40;101480.94;5005322;58;1141074;-75
2022/10/17 21:54:55;;;;;;;26.57;19.23;;;;;;;17.78;96.43;101480.36;5074152;58;1141079;-74
2022/10/17 22:00:01;;;;;;;33.42;18.42;;;;;;;17.71;96.69;101487.28;5138146;57;1141243;-74
2022/10/17 22:05:09;;;;;;;23.25;17.67;;;;;;;17.71;96.63;101494.82;5060715;57;1141246;-74
2022/10/17 22:10:17;;;;;;;22.40;18.73;;;;;;;17.66;96.82;101493.05;5019080;57;1141313;-75
2022/10/17 22:15:23;;;;;;;27.67;18.75;;;;;;;17.58;97.14;101487.02;5022675;58;1141277;-75
2022/10/17 22:20:28;;;;;;;29.48;19.45;;;;;;;17.55;97.22;101489.16;5114824;57;1141203;-76
2022/10/17 22:25:34;;;;;;;27.00;18.07;;;;;;;17.48;97.44;101493.36;5105910;57;1141143;-77
2022/10/17 22:30:40;;;;;;;24.25;17.85;;;;;;;17.42;97.65;101487.22;5069743;57;1141305;-76
2022/10/17 22:35:46;;;;;;;30.05;19.90;;;;;;;17.39;97.75;101482.18;5110650;57;1140997;-75
2022/10/17 22:40:52;;;;;;;24.55;16.87;;;;;;;17.33;97.66;101482.23;5130244;57;1141070;-76
2022/10/17 22:46:01;;;;;;;35.43;19.65;;;;;;;17.30;97.93;101478.98;5130340;57;1141117;-76
2022/10/17 22:51:07;;;;;;;31.60;18.95;;;;;;;17.23;98.05;101481.38;5130660;57;1141130;-77
2022/10/17 22:56:17;;;;;;;28.17;17.40;;;;;;;17.17;98.14;101484.11;5130996;57;1139093;-77